Nottingham - western half: Past 24 Hour Conditions

 

Iqaluit Airport

03:00 PM EST 27 November 2014
This table is a summary of hourly weather conditions for the past 24 hours.
Date / Time
(EST)
Wind(knots) Conditions Visibility(km) Pressure(kPa) Air tempC) Relative humidity(%) Dew pointC) Wind Chill
27 November 2014
15:00 ESE 11 Ice Crystals 16 100.5 -15 73 -19 -25
14:00 E 10 Partly Cloudy 24 100.6 -16 72 -20 -24
13:00 ESE 5 Partly Cloudy 24 100.7 -16 69 -21 -23
12:00 E 5 Mostly Cloudy 32 100.7 -17 69 -22 -23
11:00 ESE 5 Partly Cloudy 48 100.8 -19 69 -23 -26
10:00 NE 3 Partly Cloudy 48 100.8 -22 72 -26 -26
9:00 N 3 Mainly Sunny 48 100.8 -24 74 -28 -29
8:00 N 4 Mainly Clear 48 100.8 -25 71 -29 -31
7:00 NNW 4 Ice Crystals 24 100.9 -24 71 -28 -31
6:00 NNW 3 Ice Crystals 24 100.9 -23 71 -27 -29
5:00 NNW 7 Clear 24 100.8 -23 72 -27 -33
4:00 NW 12 Mainly Clear 24 100.8 -24 70 -28 -36
3:00 NW 12 Clear 24 100.8 -23 69 -27 -35
2:00 NW 13 Clear 24 100.7 -23 68 -27 -35
1:00 NW 17 Drifting Snow 24 100.6 -22 68 -26 -35
0:00 NNW 19 Mostly Cloudy 16 100.5 -20 71 -24 -33
26 November 2014
23:00 NNW 22 gust 30 Ice Crystals 10 100.4 -19 74 -23 -33
22:00 NW 23 Ice Crystals 10 100.3 -16 73 -20 -30
21:00 NNW 5 Ice Crystals 24 100.3 -13 78 -16 -18
20:00 NW 5 Mostly Cloudy 24 100.3 -12 73 -16 -18
19:00 ESE 5 Mostly Cloudy 24 100.3 -11 69 -16 -16
18:00 SE 10 gust 15 Mostly Cloudy 24 100.3 -12 74 -16 -20
17:00 SE 9 Ice Crystals 24 100.3 -12 71 -17 -20
16:00 SE 11 Partly Cloudy 24 100.3 -14 71 -18 -22
15:00 ESE 4 Partly Cloudy 40 100.4 -15 70 -19 -20
 
Map of Arctic - Eastern Arctic marine weather areas Baker Lake Airport Chesterfield Inlet Airport Coral Harbour Airport Gjoa Haven Airport Kugaaruk Airport Rankin Inlet Airport Shepherd Bay Airport Whale Cove Airport Arctic Bay Brevoort Island Qikiqtarjuaq Airport Cape Dorset Airport Cape Dyer Cape Hooper Clyde Airport Grise Fiord Airport Hall Beach Airport Igloolik Airport Iqaluit Airport Longstaff Bluff Pangnirtung Airport Pond Inlet Airport Repulse Bay Airport Resolute Airport Resolution Island Rowley Island Airport Taloyoak Airport Wager Bay Akulivik Airport Ivujivik Airport Puvirnituq Airport Kangiqsujuaq Airport Kangirsuk Airport Quaqtaq Airport Tasiujaq Airport Cape Kakkiviak Cape Kiglapait Nain Airport Saglek Cape Mercy Kimmirut Airport Aupaluk Airport Salluit Airport Kangiqsualujjuaq Airport Fort Ross
Legend: buoyBuoy land stationLand Station